This is the latest recevied weather packets stored in our database for station/object KG4GJX. If no packets are shown the sender has not sent any weather packets the latest 10 day(s).
| Time | Temp. | Humidity | Pressure | Rain* | Wind** | Luminosity | Snow |
|---|---|---|---|---|---|---|---|
| 1777945155 | 16.11° C | 68% | 1013.2 hPa | 0 mm | - | - | - |
| 1777944493 | 17.22° C | 64% | 1012.8 hPa | 0 mm | - | - | - |
| 1777943830 | 17.78° C | 62% | 1012.8 hPa | 0 mm | - | - | - |
| 1777943168 | 18.89° C | 58% | 1012.8 hPa | 0 mm | - | - | - |
| 1777942506 | 20° C | 55% | 1012.8 hPa | 0 mm | - | - | - |
| 1777941843 | 20.56° C | 52% | 1012.8 hPa | 0 mm | - | - | - |
| 1777941180 | 21.11° C | 51% | 1012.8 hPa | 0 mm | - | - | - |
| 1777940518 | 21.11° C | 51% | 1012.5 hPa | 0 mm | - | - | - |
| 1777939856 | 21.67° C | 50% | 1012.5 hPa | 0 mm | - | - | - |
| 1777939193 | 22.22° C | 50% | 1012.5 hPa | 0 mm | - | - | - |
| 1777938531 | 22.78° C | 50% | 1012.1 hPa | 0 mm | - | - | - |
| 1777937869 | 23.33° C | 50% | 1012.1 hPa | 0 mm | - | - | - |
| 1777937206 | 23.89° C | 48% | 1012.5 hPa | 0 mm | - | - | - |
| 1777936543 | 23.89° C | 48% | 1012.5 hPa | 0 mm | - | - | - |
| 1777935881 | 24.44° C | 50% | 1012.5 hPa | 0 mm | - | - | - |
| 1777935219 | 24.44° C | 48% | 1012.5 hPa | 0 mm | - | - | - |
| 1777934556 | 25° C | 48% | 1012.5 hPa | 0 mm | - | - | - |
| 1777933894 | 25° C | 47% | 1012.5 hPa | 0 mm | - | - | - |
| 1777933232 | 25° C | 48% | 1012.5 hPa | 0 mm | - | - | - |
| 1777932569 | 25.56° C | 48% | 1012.5 hPa | 0 mm | - | - | - |
| 1777931907 | 25.56° C | 48% | 1012.5 hPa | 0 mm | - | - | - |
| 1777931244 | 25.56° C | 47% | 1012.5 hPa | 0 mm | - | - | - |
| 1777930582 | 25.56° C | 48% | 1012.5 hPa | 0 mm | - | - | - |
| 1777929919 | 25.56° C | 47% | 1012.5 hPa | 0 mm | - | - | - |
| 1777929257 | 25.56° C | 48% | 1012.5 hPa | 0 mm | - | - | - |
* Rain latest hour (hover to see other rain measurements)
** Current wind speed in m/s (hover to see current wind gust speed)